Briefing drone pour Plombieres-les-dijon

Rechercher une autre localisation

Conditions de vol :


Nous sommes le : Mercredi 22 septembre 2021
Il est 20:14 UTC (22:14 LT)

Lever de soleil : 05:00 UTC (07:00 LT)
Coucher de soleil : 18:04 UTC (20:04 LT)

Météo

L'essentiel des conditions de vol

VIGILANCE MÉTÉO FRANCE - Côte-dOr (21)
Pas de vigilances particulieres
METAR de LFSD
LFSD 222000Z AUTO 35005KT CAVOK 14/10 Q1023

Date d'émission: 22/09/2021
Heure d'émission: 20:00 UTC
Vent: 350° pour 5 KT (9 km/h)
Visibilité horizontale: > 10 km
Plafond : Plafond et visibilité OK (CAVOK)
Température: 14 °C
Point de rosée: 10 °C
Humidité: 77%
Pression (QNH): 1023 hPa
TAF de LFSD
LFSD 010600Z 0100/0124 CNL

Conditions prévues :

Heure d'émission : Bulletin éffectué le 01 à 00:00 UTC
Prévision : Valide du 01 a 00:00 UTC au 01 a 23:59 UTC
Nuages : à 0ft (0 m)
WEBCAM POUR PLOMBIERES-LES-DIJON

Réglementation

Voler en sécurité

CARTES AERONAUTIQUE 1/500.000
CARTES VAC (LFSD)
SUP AIP




Chargement des AIP...
NOTAM (PLOMBIERES-LES-DIJON + Terrain à proximité / FIR )




Chargement des NOTAMS...
CONTACT PREFECTURE 21
Côte-dOr (21) : pref-drone@cote-dor.gouv.fr


Avertissement : Les données mises à disposition sont indicatives. Oxygène Drone ne pourra être tenu responsable de dégâts causés aux biens et aux personnes.